createdAt,value
2019-05-09T00:01:43.744Z,16.27
2019-05-09T00:04:14.015Z,12.97
2019-05-09T00:06:44.635Z,13.70
2019-05-09T00:09:15.392Z,13.60
2019-05-09T00:11:45.952Z,12.40
2019-05-09T00:14:16.523Z,14.60
2019-05-09T00:16:47.110Z,14.83
2019-05-09T00:19:17.708Z,12.33
2019-05-09T00:21:54.062Z,10.70
2019-05-09T00:24:24.758Z,15.17
2019-05-09T00:26:55.344Z,13.03
2019-05-09T00:29:30.554Z,13.33
2019-05-09T00:32:18.083Z,14.03
2019-05-09T00:34:56.069Z,12.70
2019-05-09T00:37:44.815Z,12.97
2019-05-09T00:40:16.369Z,14.73
2019-05-09T00:42:46.930Z,14.47
2019-05-09T00:45:19.141Z,11.33
2019-05-09T00:47:49.721Z,13.30
2019-05-09T00:50:20.304Z,10.77
2019-05-09T00:52:50.980Z,11.97
2019-05-09T00:55:23.747Z,11.20
2019-05-09T00:57:53.963Z,12.90
2019-05-09T01:00:24.813Z,12.30
2019-05-09T01:02:55.455Z,12.10
2019-05-09T01:05:26.316Z,14.37
2019-05-09T01:07:58.333Z,13.27
2019-05-09T01:10:29.146Z,13.23
2019-05-09T01:12:59.621Z,12.57
2019-05-09T01:15:30.203Z,13.90
2019-05-09T01:18:00.786Z,15.17
2019-05-09T01:20:33.319Z,15.23
2019-05-09T01:23:03.662Z,12.43
2019-05-09T01:25:34.214Z,11.60
2019-05-09T01:28:04.842Z,13.13
2019-05-09T01:30:35.474Z,13.80
2019-05-09T01:33:24.200Z,16.27
2019-05-09T01:35:54.887Z,12.37
2019-05-09T01:38:25.494Z,14.63
2019-05-09T01:40:56.086Z,12.27
2019-05-09T01:43:26.666Z,13.10
2019-05-09T01:45:57.259Z,14.00
2019-05-09T01:48:29.533Z,11.73
2019-05-09T01:51:00.088Z,13.43
2019-05-09T01:53:33.438Z,10.80
2019-05-09T01:56:05.276Z,13.03
2019-05-09T01:58:35.873Z,12.43
2019-05-09T02:01:08.321Z,15.03
2019-05-09T02:03:38.902Z,11.20
2019-05-09T02:06:09.481Z,14.77
2019-05-09T02:08:40.037Z,12.23
2019-05-09T02:11:13.090Z,12.57
2019-05-09T02:13:44.215Z,14.77
2019-05-09T02:16:19.521Z,15.30
2019-05-09T02:18:54.694Z,14.90
2019-05-09T02:21:25.253Z,12.37
2019-05-09T02:23:55.839Z,12.43
2019-05-09T02:26:26.389Z,14.23
2019-05-09T02:28:56.967Z,13.13
2019-05-09T02:31:27.623Z,15.77
2019-05-09T02:33:58.176Z,15.20
2019-05-09T02:36:29.595Z,12.53
2019-05-09T02:39:00.210Z,13.60
2019-05-09T02:41:30.846Z,14.23
2019-05-09T02:44:01.454Z,14.00
2019-05-09T02:46:39.657Z,24.97
2019-05-09T02:49:11.745Z,14.10
2019-05-09T02:51:42.558Z,16.17
2019-05-09T02:54:13.113Z,13.63
2019-05-09T02:56:44.436Z,16.87
2019-05-09T02:59:32.782Z,15.33
2019-05-09T03:02:19.560Z,17.50
2019-05-09T03:04:49.276Z,16.57
2019-05-09T03:07:21.469Z,16.53
2019-05-09T03:09:52.038Z,12.87
2019-05-09T03:12:32.051Z,20.23
2019-05-09T03:14:54.852Z,13.63
2019-05-09T03:17:27.856Z,15.67
2019-05-09T03:19:58.639Z,16.70
2019-05-09T03:22:29.594Z,16.13
2019-05-09T03:25:00.166Z,13.70
2019-05-09T03:27:32.383Z,15.10
2019-05-09T03:30:04.596Z,16.60
2019-05-09T03:32:38.537Z,14.83
2019-05-09T03:35:08.407Z,15.03
2019-05-09T03:37:39.056Z,18.27
2019-05-09T03:40:09.701Z,17.80
2019-05-09T03:42:43.599Z,13.80
2019-05-09T03:45:14.270Z,16.77
2019-05-09T03:47:49.164Z,18.67
2019-05-09T03:50:19.740Z,14.70
2019-05-09T03:52:50.294Z,17.43
2019-05-09T03:55:22.512Z,19.87
2019-05-09T03:58:03.568Z,13.83
2019-05-09T04:00:34.129Z,15.43
2019-05-09T04:03:04.774Z,17.13
2019-05-09T04:05:37.519Z,15.17
2019-05-09T04:08:18.221Z,15.70
2019-05-09T04:10:51.575Z,13.83
2019-05-09T04:13:24.333Z,16.47
2019-05-09T04:15:55.219Z,15.63
2019-05-09T04:18:27.735Z,17.23
2019-05-09T04:20:58.372Z,16.30
2019-05-09T04:23:28.951Z,16.50
2019-05-09T04:26:01.193Z,13.93
2019-05-09T04:28:31.826Z,16.63
2019-05-09T04:31:02.392Z,16.47
2019-05-09T04:33:32.967Z,17.60
2019-05-09T04:36:03.574Z,15.67
2019-05-09T04:38:34.249Z,17.97
2019-05-09T04:41:04.893Z,14.10
2019-05-09T04:43:39.455Z,17.07
2019-05-09T04:46:12.861Z,20.23
2019-05-09T04:48:42.262Z,16.30
2019-05-09T04:51:12.844Z,14.20
2019-05-09T04:53:43.408Z,13.03
2019-05-09T04:56:24.902Z,17.80
2019-05-09T04:58:55.487Z,14.57
2019-05-09T05:01:39.900Z,15.80
2019-05-09T05:04:10.903Z,18.77
2019-05-09T05:06:42.417Z,18.10
2019-05-09T05:09:13.101Z,18.67
2019-05-09T05:11:46.520Z,145.70
2019-05-09T05:14:22.667Z,253.40
2019-05-09T05:16:55.728Z,89.90
2019-05-09T05:19:30.929Z,35.30
2019-05-09T05:22:01.250Z,26.00
2019-05-09T05:24:39.288Z,16.97
2019-05-09T05:27:10.034Z,15.77
2019-05-09T05:29:40.611Z,15.10
2019-05-09T05:32:14.106Z,14.47
2019-05-09T05:34:48.034Z,21.33
2019-05-09T05:37:19.598Z,16.93
2019-05-09T05:39:50.206Z,16.87
2019-05-09T05:42:22.259Z,15.37
2019-05-09T05:44:53.776Z,16.77
2019-05-09T05:47:27.254Z,21.27
2019-05-09T05:49:58.262Z,17.80
2019-05-09T05:52:28.840Z,14.77
2019-05-09T05:55:00.215Z,16.07
2019-05-09T05:57:30.929Z,14.37
2019-05-09T06:00:01.480Z,16.50
2019-05-09T06:02:33.166Z,13.33
2019-05-09T06:05:04.340Z,14.43
2019-05-09T06:07:34.918Z,13.67
2019-05-09T06:10:08.264Z,15.43
2019-05-09T06:12:38.629Z,19.13
2019-05-09T06:15:09.851Z,16.70
2019-05-09T06:17:40.430Z,15.63
2019-05-09T06:20:11.352Z,15.17
2019-05-09T06:22:41.898Z,13.50
2019-05-09T06:25:12.542Z,14.97
2019-05-09T06:27:43.109Z,12.67
2019-05-09T06:30:17.577Z,19.40
2019-05-09T06:32:48.166Z,17.93
2019-05-09T06:35:21.898Z,15.27
2019-05-09T06:37:52.457Z,15.40
2019-05-09T06:40:24.668Z,12.13
2019-05-09T06:42:55.295Z,15.20
2019-05-09T06:45:30.714Z,14.77
2019-05-09T06:48:01.352Z,18.23
2019-05-09T06:50:31.954Z,15.83
2019-05-09T06:53:02.511Z,16.57
2019-05-09T06:55:33.098Z,13.30
2019-05-09T06:58:05.385Z,18.53
2019-05-09T07:00:39.116Z,18.10
2019-05-09T07:03:11.637Z,15.80
2019-05-09T07:05:53.173Z,20.93
2019-05-09T07:08:31.197Z,16.97
2019-05-09T07:11:00.534Z,15.53
2019-05-09T07:13:31.200Z,17.63
2019-05-09T07:16:02.235Z,15.00
2019-05-09T07:18:32.813Z,14.60
2019-05-09T07:21:03.698Z,11.70
2019-05-09T07:23:34.284Z,14.30
2019-05-09T07:26:12.566Z,15.43
2019-05-09T07:28:43.157Z,16.27
2019-05-09T07:31:28.437Z,13.50
2019-05-09T07:34:03.746Z,14.50
2019-05-09T07:36:34.698Z,14.07
2019-05-09T07:39:08.712Z,14.83
2019-05-09T07:41:39.651Z,17.70
2019-05-09T07:44:10.219Z,33.60
2019-05-09T07:46:51.237Z,35.47
2019-05-09T07:49:21.843Z,46.13
2019-05-09T07:51:52.522Z,35.87
2019-05-09T07:54:25.701Z,23.90
2019-05-09T07:56:57.855Z,25.60
2019-05-09T07:59:27.744Z,22.77
2019-05-09T08:01:58.441Z,20.37
2019-05-09T08:04:29.014Z,16.87
2019-05-09T08:06:59.877Z,19.10
2019-05-09T08:09:33.009Z,22.57
2019-05-09T08:12:03.591Z,20.80
2019-05-09T08:14:39.259Z,20.73
2019-05-09T08:17:10.123Z,15.50
2019-05-09T08:19:40.702Z,18.37
2019-05-09T08:22:12.380Z,17.50
2019-05-09T08:24:44.087Z,14.83
2019-05-09T08:27:14.653Z,15.23
2019-05-09T08:29:47.689Z,13.70
2019-05-09T08:32:18.160Z,13.23
2019-05-09T08:34:48.802Z,15.47
2019-05-09T08:37:19.380Z,15.73
2019-05-09T08:39:49.953Z,17.67
2019-05-09T08:42:20.523Z,16.00
2019-05-09T08:44:51.090Z,13.00
2019-05-09T08:47:21.669Z,16.77
2019-05-09T08:50:01.583Z,17.10
2019-05-09T08:52:32.129Z,17.23
2019-05-09T08:55:02.741Z,17.17
2019-05-09T08:57:33.424Z,16.37
2019-05-09T09:00:08.701Z,22.40
2019-05-09T09:02:39.253Z,14.37
2019-05-09T09:05:10.073Z,15.47
2019-05-09T09:07:40.649Z,13.17
2019-05-09T09:10:11.645Z,14.40
2019-05-09T09:12:42.268Z,13.90
2019-05-09T09:15:12.934Z,13.77
2019-05-09T09:17:43.518Z,14.57
2019-05-09T09:20:14.218Z,12.63
2019-05-09T09:22:44.807Z,19.17
2019-05-09T09:25:15.406Z,17.80
2019-05-09T09:27:50.696Z,33.33
2019-05-09T09:30:24.713Z,16.70
2019-05-09T09:32:51.147Z,16.13
2019-05-09T09:35:21.814Z,18.27
2019-05-09T09:37:52.476Z,22.87
2019-05-09T09:40:23.959Z,20.53
2019-05-09T09:42:54.564Z,22.00
2019-05-09T09:45:27.739Z,20.20
2019-05-09T09:47:59.196Z,17.27
2019-05-09T09:50:30.182Z,16.40
2019-05-09T09:53:01.843Z,15.50
2019-05-09T09:55:32.608Z,17.50
2019-05-09T09:58:03.723Z,16.80
2019-05-09T10:01:08.810Z,14.70
2019-05-09T10:03:38.323Z,15.33
2019-05-09T10:06:09.130Z,16.30
2019-05-09T10:08:40.472Z,15.77
2019-05-09T10:11:11.418Z,14.57
2019-05-09T10:13:42.003Z,17.13
2019-05-09T10:16:28.590Z,13.87
2019-05-09T10:18:48.145Z,14.07
2019-05-09T10:21:20.366Z,16.47
2019-05-09T10:23:51.176Z,11.70
2019-05-09T10:26:21.782Z,11.67
2019-05-09T10:28:52.341Z,14.50
2019-05-09T10:31:23.093Z,14.23
2019-05-09T10:33:55.168Z,18.23
2019-05-09T10:36:27.848Z,13.77
2019-05-09T10:38:58.841Z,11.57
2019-05-09T10:41:29.989Z,12.47
2019-05-09T10:44:02.207Z,13.90
2019-05-09T10:46:52.135Z,11.70
2019-05-09T10:49:08.517Z,11.57
2019-05-09T10:51:39.193Z,14.83
2019-05-09T10:54:09.784Z,14.57
2019-05-09T10:56:40.457Z,31.63
2019-05-09T10:59:11.200Z,19.70
2019-05-09T11:01:41.795Z,16.87
2019-05-09T11:04:12.873Z,23.43
2019-05-09T11:06:43.431Z,25.90
2019-05-09T11:09:14.008Z,19.13
2019-05-09T11:11:44.740Z,15.23
2019-05-09T11:14:31.606Z,14.10
2019-05-09T11:16:54.295Z,14.07
2019-05-09T11:19:20.027Z,11.10
2019-05-09T11:21:50.597Z,11.30
2019-05-09T11:24:21.465Z,12.00
2019-05-09T11:26:53.641Z,12.70
2019-05-09T11:29:24.207Z,11.57
2019-05-09T11:31:54.772Z,10.90
2019-05-09T11:34:25.402Z,10.60
2019-05-09T11:36:57.908Z,10.07
2019-05-09T11:39:36.548Z,10.17
2019-05-09T11:42:00.553Z,10.87
2019-05-09T11:44:31.118Z,12.63
2019-05-09T11:47:01.689Z,9.17
2019-05-09T11:49:32.515Z,9.87
2019-05-09T11:52:03.088Z,8.60
2019-05-09T11:54:33.755Z,10.40
2019-05-09T11:57:04.327Z,9.73
2019-05-09T11:59:34.890Z,9.67
2019-05-09T12:02:08.917Z,9.30
2019-05-09T12:04:39.090Z,11.43
2019-05-09T12:07:09.666Z,10.27
2019-05-09T12:09:40.226Z,8.47
2019-05-09T12:12:10.795Z,10.23
2019-05-09T12:14:41.365Z,7.57
2019-05-09T12:17:11.920Z,8.60
2019-05-09T12:19:42.496Z,9.43
2019-05-09T12:22:13.087Z,9.87
2019-05-09T12:24:44.885Z,7.77
2019-05-09T12:27:18.571Z,8.27
2019-05-09T12:29:48.400Z,52.53
2019-05-09T12:32:22.094Z,21.10
2019-05-09T12:34:52.723Z,17.17
2019-05-09T12:37:23.319Z,10.67
2019-05-09T12:39:55.805Z,9.63
2019-05-09T12:42:28.835Z,12.43
2019-05-09T12:44:59.107Z,9.70
2019-05-09T12:47:29.852Z,8.80
2019-05-09T12:50:02.923Z,9.10
2019-05-09T12:52:33.045Z,8.77
2019-05-09T12:55:04.330Z,9.20
2019-05-09T12:57:34.896Z,8.93
2019-05-09T13:00:11.985Z,8.30
2019-05-09T13:02:42.581Z,8.07
2019-05-09T13:05:13.396Z,6.83
2019-05-09T13:07:44.017Z,7.57
2019-05-09T13:10:14.811Z,6.83
2019-05-09T13:12:47.591Z,8.97
2019-05-09T13:15:20.854Z,8.37
2019-05-09T13:17:52.342Z,8.50
2019-05-09T13:20:22.918Z,8.03
2019-05-09T13:22:53.480Z,8.03
2019-05-09T13:25:24.115Z,7.03
2019-05-09T13:27:55.073Z,7.73
2019-05-09T13:30:28.308Z,7.27
2019-05-09T13:32:57.991Z,7.67
2019-05-09T13:35:28.625Z,7.40
2019-05-09T13:37:59.793Z,6.53
2019-05-09T13:40:30.426Z,7.10
2019-05-09T13:43:01.118Z,6.70
2019-05-09T13:45:31.699Z,7.80
2019-05-09T13:48:02.284Z,6.83
2019-05-09T13:50:33.942Z,6.73
2019-05-09T13:53:04.558Z,6.90
2019-05-09T13:55:37.921Z,7.50
2019-05-09T13:58:07.748Z,7.07
2019-05-09T14:00:39.413Z,8.43
2019-05-09T14:03:11.231Z,8.13
2019-05-09T14:05:42.817Z,8.00
2019-05-09T14:08:14.285Z,7.30
2019-05-09T14:10:44.922Z,7.53
2019-05-09T14:13:15.507Z,6.50
2019-05-09T14:15:48.672Z,8.33
2019-05-09T14:18:19.103Z,8.80
2019-05-09T14:20:49.852Z,7.30
2019-05-09T14:23:21.520Z,18.90
2019-05-09T14:25:52.226Z,11.23
2019-05-09T14:28:22.871Z,9.10
2019-05-09T14:30:53.754Z,7.30
2019-05-09T14:33:24.646Z,7.57
2019-05-09T14:35:55.232Z,8.93
2019-05-09T14:38:28.035Z,7.97
2019-05-09T14:40:59.483Z,10.73
2019-05-09T14:43:30.530Z,9.70
2019-05-09T14:46:01.222Z,11.73
2019-05-09T14:48:31.824Z,10.33
2019-05-09T14:51:02.524Z,10.23
2019-05-09T14:53:33.383Z,9.47
2019-05-09T14:56:04.082Z,9.60
2019-05-09T14:58:34.652Z,10.97
2019-05-09T15:01:08.388Z,11.33
2019-05-09T15:03:38.905Z,8.20
2019-05-09T15:06:09.820Z,11.73
2019-05-09T15:08:40.428Z,10.00
2019-05-09T15:11:11.161Z,11.07
2019-05-09T15:13:41.723Z,10.07
2019-05-09T15:16:13.988Z,11.73
2019-05-09T15:18:44.590Z,10.63
2019-05-09T15:21:16.658Z,7.73
2019-05-09T15:23:48.192Z,8.43
2019-05-09T15:26:20.511Z,8.50
2019-05-09T15:28:51.086Z,10.67
2019-05-09T15:31:22.067Z,10.10
2019-05-09T15:33:52.724Z,11.17
2019-05-09T15:36:23.400Z,13.00
2019-05-09T15:38:54.091Z,10.90
2019-05-09T15:41:24.677Z,74.97
2019-05-09T15:43:57.919Z,19.33
2019-05-09T15:46:30.007Z,15.33
2019-05-09T15:49:00.630Z,157.20
2019-05-09T15:51:32.195Z,72.70
2019-05-09T15:54:02.932Z,35.60
2019-05-09T15:56:33.689Z,34.47
2019-05-09T15:59:04.309Z,28.03
2019-05-09T16:01:38.520Z,31.33
2019-05-09T16:04:09.143Z,180.43
2019-05-09T16:06:39.753Z,108.27
2019-05-09T16:09:12.059Z,100.80
2019-05-09T16:11:42.853Z,67.73
2019-05-09T16:14:14.610Z,84.17
2019-05-09T16:16:47.850Z,129.30
2019-05-09T16:19:19.352Z,151.23
2019-05-09T16:21:49.959Z,103.43
2019-05-09T16:24:20.559Z,44.33
2019-05-09T16:26:51.605Z,36.77
2019-05-09T16:29:22.279Z,89.97
2019-05-09T16:31:53.146Z,94.23
2019-05-09T16:34:23.718Z,259.27
2019-05-09T16:36:54.325Z,270.10
2019-05-09T16:39:27.794Z,240.57
2019-05-09T16:41:59.158Z,160.23
2019-05-09T16:44:29.955Z,106.93
2019-05-09T16:47:00.552Z,110.20
2019-05-09T16:49:31.152Z,53.77
2019-05-09T16:52:01.733Z,38.17
2019-05-09T16:54:34.026Z,49.73
2019-05-09T16:57:04.663Z,45.93
2019-05-09T16:59:35.242Z,39.13
2019-05-09T17:02:18.714Z,39.93
2019-05-09T17:04:40.432Z,38.43
2019-05-09T17:07:11.009Z,40.23
2019-05-09T17:09:44.983Z,30.00
2019-05-09T17:12:18.658Z,32.10
2019-05-09T17:14:49.372Z,31.13
2019-05-09T17:17:19.976Z,31.27
2019-05-09T17:19:50.922Z,28.50
2019-05-09T17:22:39.850Z,24.47
2019-05-09T17:25:10.539Z,21.73
2019-05-09T17:27:41.491Z,19.57
2019-05-09T17:30:12.295Z,19.87
2019-05-09T17:32:43.126Z,26.37
2019-05-09T17:35:14.677Z,65.43
2019-05-09T17:37:45.280Z,98.30
2019-05-09T17:40:19.050Z,265.93
2019-05-09T17:42:48.581Z,393.93
2019-05-09T17:45:20.098Z,134.20
2019-05-09T17:47:51.115Z,76.77
2019-05-09T17:50:21.981Z,38.33
2019-05-09T17:52:52.787Z,25.03
2019-05-09T17:55:23.468Z,24.50
2019-05-09T17:57:54.139Z,29.47
2019-05-09T18:00:27.836Z,30.33
2019-05-09T18:02:59.160Z,79.07
2019-05-09T18:05:31.726Z,69.77
2019-05-09T18:08:03.900Z,150.47
2019-05-09T18:10:38.043Z,113.87
2019-05-09T18:13:08.541Z,96.30
2019-05-09T18:15:40.089Z,69.73
2019-05-09T18:18:10.850Z,39.27
2019-05-09T18:20:42.946Z,21.70
2019-05-09T18:23:13.604Z,19.07
2019-05-09T18:25:49.197Z,16.10
2019-05-09T18:28:19.336Z,18.67
2019-05-09T18:30:50.080Z,18.47
2019-05-09T18:33:38.080Z,18.40
2019-05-09T18:36:09.215Z,19.40
2019-05-09T18:38:41.933Z,19.63
2019-05-09T18:41:17.686Z,17.33
2019-05-09T18:43:48.269Z,17.57
2019-05-09T18:46:21.721Z,14.20
2019-05-09T18:48:52.658Z,18.50
2019-05-09T18:51:23.668Z,20.80
2019-05-09T18:53:54.304Z,15.57
2019-05-09T18:56:24.884Z,16.33
2019-05-09T18:58:55.568Z,49.27
2019-05-09T19:01:26.285Z,30.23
2019-05-09T19:03:57.665Z,21.50
2019-05-09T19:06:28.478Z,18.67
2019-05-09T19:08:59.579Z,15.93
2019-05-09T19:11:30.921Z,15.43
2019-05-09T19:14:03.527Z,15.40
2019-05-09T19:16:52.891Z,18.50
2019-05-09T19:19:25.325Z,17.17
2019-05-09T19:22:06.384Z,44.30
2019-05-09T19:24:34.425Z,92.60
2019-05-09T19:27:05.339Z,82.37
2019-05-09T19:29:35.988Z,58.73
2019-05-09T19:32:07.504Z,42.33
2019-05-09T19:34:42.406Z,29.70
2019-05-09T19:37:13.153Z,28.53
2019-05-09T19:39:43.778Z,34.97
2019-05-09T19:42:15.686Z,31.50
2019-05-09T19:44:46.984Z,36.63
2019-05-09T19:47:19.205Z,43.27
2019-05-09T19:49:50.470Z,36.50
2019-05-09T19:52:36.205Z,44.40
2019-05-09T19:54:55.658Z,52.77
2019-05-09T19:57:27.465Z,52.57
2019-05-09T19:59:58.262Z,37.77
2019-05-09T20:02:29.745Z,32.43
2019-05-09T20:05:00.724Z,27.53
2019-05-09T20:07:33.072Z,23.23
2019-05-09T20:10:11.337Z,26.40
2019-05-09T20:13:00.842Z,20.43
2019-05-09T20:15:31.544Z,19.30
2019-05-09T20:18:02.297Z,16.23
2019-05-09T20:20:33.287Z,21.30
2019-05-09T20:23:04.472Z,17.87
2019-05-09T20:25:35.182Z,18.20
2019-05-09T20:28:06.147Z,17.77
2019-05-09T20:30:36.686Z,17.03
2019-05-09T20:33:07.779Z,19.40
2019-05-09T20:35:38.756Z,18.57
2019-05-09T20:38:10.099Z,18.93
2019-05-09T20:40:42.401Z,17.77
2019-05-09T20:43:13.573Z,18.47
2019-05-09T20:45:44.990Z,19.60
2019-05-09T20:48:15.971Z,16.90
2019-05-09T20:50:46.832Z,16.60
2019-05-09T20:53:17.745Z,17.33
2019-05-09T20:55:48.885Z,28.13
2019-05-09T20:58:19.638Z,22.70
2019-05-09T21:00:50.542Z,21.00
2019-05-09T21:03:21.474Z,27.40
2019-05-09T21:05:52.309Z,28.90
2019-05-09T21:08:24.314Z,27.43
2019-05-09T21:10:55.125Z,25.97
2019-05-09T21:13:26.102Z,27.83
2019-05-09T21:15:56.958Z,32.37
2019-05-09T21:18:27.952Z,31.63
2019-05-09T21:20:59.818Z,29.00
2019-05-09T21:23:30.602Z,24.50
2019-05-09T21:26:01.414Z,23.37
2019-05-09T21:28:33.160Z,21.67
2019-05-09T21:31:04.329Z,25.20
2019-05-09T21:33:35.438Z,21.97
2019-05-09T21:36:06.038Z,25.60
2019-05-09T21:38:36.618Z,26.80
2019-05-09T21:41:07.188Z,22.73
2019-05-09T21:43:37.769Z,21.83
2019-05-09T21:46:08.352Z,19.70
2019-05-09T21:48:38.930Z,18.80
2019-05-09T21:51:09.564Z,18.47
2019-05-09T21:53:41.347Z,17.97
2019-05-09T21:56:12.129Z,18.07
2019-05-09T21:58:42.719Z,21.17
2019-05-09T22:01:16.418Z,19.07
2019-05-09T22:03:47.407Z,17.30
2019-05-09T22:06:17.988Z,19.47
2019-05-09T22:08:48.570Z,21.17
2019-05-09T22:11:19.145Z,25.33
2019-05-09T22:13:49.704Z,23.97
2019-05-09T22:16:21.233Z,27.37
2019-05-09T22:18:52.173Z,25.23
2019-05-09T22:21:22.822Z,23.10
2019-05-09T22:23:56.786Z,35.03
2019-05-09T22:26:25.684Z,33.40
2019-05-09T22:28:56.255Z,37.47
2019-05-09T22:31:26.836Z,36.80
2019-05-09T22:33:57.411Z,30.37
2019-05-09T22:36:27.969Z,21.80
2019-05-09T22:38:58.552Z,21.90
2019-05-09T22:41:29.109Z,21.27
2019-05-09T22:43:59.761Z,21.73
2019-05-09T22:46:30.439Z,22.27
2019-05-09T22:49:01.025Z,21.30
2019-05-09T22:51:31.577Z,21.50
2019-05-09T22:54:12.415Z,18.03
2019-05-09T22:56:34.536Z,19.33
2019-05-09T22:59:05.394Z,18.57
2019-05-09T23:01:35.973Z,18.53
2019-05-09T23:04:06.582Z,25.47
2019-05-09T23:06:37.520Z,21.50
2019-05-09T23:09:08.131Z,17.53
2019-05-09T23:11:38.807Z,19.30
2019-05-09T23:14:09.596Z,19.73
2019-05-09T23:16:41.142Z,18.43
2019-05-09T23:19:11.724Z,17.60
2019-05-09T23:21:42.308Z,19.20
2019-05-09T23:24:27.486Z,17.47
2019-05-09T23:26:47.122Z,20.30
2019-05-09T23:29:17.858Z,18.30
2019-05-09T23:31:50.078Z,18.70
2019-05-09T23:34:20.656Z,17.87
2019-05-09T23:36:51.338Z,24.03
2019-05-09T23:39:29.420Z,19.80
2019-05-09T23:42:00.014Z,24.53
2019-05-09T23:44:30.790Z,24.23
2019-05-09T23:47:01.384Z,25.83
2019-05-09T23:49:31.996Z,25.63
2019-05-09T23:52:02.859Z,28.17
2019-05-09T23:54:51.423Z,27.97
2019-05-09T23:57:39.771Z,27.23
